Terminal Aerodrome Forecast
Issued by NWS Blacksburg, VA

Home | Current Version | Previous Version | Text Only | Print | Product List | Glossary On
Versions: 1 2 3 4 5 6 7 8 9 10 11 12 13 14 15 16 17 18 19 20 21 22 23 24 25 26 27 28 29 30 31 32 33 34 35 36 37 38
000
FTUS41 KRNK 200529
TAFLYH
TAF
KLYH 200529Z 2006/2106 20004KT 5SM BR SCT120
      TEMPO 2009/2012 2SM BR
     FM201300 24008KT P6SM SCT050
     FM201700 23012G20KT P6SM VCTS SCT045CB
     FM202000 24014G25KT P6SM VCTS BKN045CB
     FM210000 23007KT P6SM SCT040 BKN120=

USA.gov is the U.S. government's official web portal to all federal, state and local government web resources and services.